createdAt,value
2023-02-23T00:00:29.971Z,72.04
2023-02-23T00:02:58.351Z,71.84
2023-02-23T00:05:25.983Z,71.97
2023-02-23T00:07:53.537Z,72.07
2023-02-23T00:10:20.719Z,72.01
2023-02-23T00:12:50.857Z,71.92
2023-02-23T00:15:17.246Z,71.90
2023-02-23T00:17:43.346Z,71.71
2023-02-23T00:20:11.334Z,71.67
2023-02-23T00:22:39.550Z,71.45
2023-02-23T00:25:07.531Z,71.35
2023-02-23T00:27:43.465Z,71.41
2023-02-23T00:30:12.202Z,71.31
2023-02-23T00:32:39.507Z,71.34
2023-02-23T00:35:16.496Z,71.66
2023-02-23T00:37:44.899Z,71.67
2023-02-23T00:40:13.916Z,71.84
2023-02-23T00:42:40.514Z,71.81
2023-02-23T00:45:11.062Z,71.72
2023-02-23T00:47:39.159Z,71.66
2023-02-23T00:50:06.893Z,71.78
2023-02-23T00:52:34.038Z,71.70
2023-02-23T00:55:02.159Z,71.47
2023-02-23T00:57:28.205Z,71.61
2023-02-23T00:59:54.200Z,71.66
2023-02-23T01:02:20.204Z,71.62
2023-02-23T01:04:46.560Z,71.61
2023-02-23T01:07:12.697Z,71.49
2023-02-23T01:09:38.777Z,71.49
2023-02-23T01:12:06.762Z,71.36
2023-02-23T01:14:35.060Z,71.50
2023-02-23T01:17:01.197Z,71.40
2023-02-23T01:19:27.900Z,71.42
2023-02-23T01:21:53.915Z,71.40
2023-02-23T01:24:19.988Z,71.33
2023-02-23T01:26:46.905Z,71.38
2023-02-23T01:29:15.684Z,71.19
2023-02-23T01:31:44.937Z,71.13
2023-02-23T01:34:13.180Z,71.08
2023-02-23T01:36:41.469Z,71.00
2023-02-23T01:39:14.770Z,71.03
2023-02-23T01:41:44.101Z,71.04
2023-02-23T01:44:12.891Z,70.94
2023-02-23T01:46:44.669Z,70.95
2023-02-23T01:49:16.113Z,70.70
2023-02-23T01:51:50.538Z,70.87
2023-02-23T01:54:25.894Z,70.72
2023-02-23T01:56:57.394Z,70.81
2023-02-23T01:59:36.181Z,70.76
2023-02-23T02:02:06.996Z,70.64
2023-02-23T02:04:44.523Z,70.71
2023-02-23T02:07:17.940Z,70.73
2023-02-23T02:10:06.967Z,70.61
2023-02-23T02:12:33.192Z,70.61
2023-02-23T02:15:00.056Z,70.60
2023-02-23T02:17:44.522Z,70.52
2023-02-23T02:20:32.187Z,70.44
2023-02-23T02:23:28.222Z,70.43
2023-02-23T02:26:22.198Z,70.34
2023-02-23T02:29:06.320Z,70.24
2023-02-23T02:31:51.082Z,70.32
2023-02-23T02:34:29.334Z,70.37
2023-02-23T02:37:07.513Z,70.28
2023-02-23T02:40:14.110Z,70.05
2023-02-23T02:43:10.826Z,70.04
2023-02-23T02:45:56.486Z,70.03
2023-02-23T02:48:32.769Z,70.16
2023-02-23T02:51:23.400Z,70.15
2023-02-23T02:54:17.144Z,70.09
2023-02-23T02:56:46.584Z,70.11
2023-02-23T02:59:35.152Z,70.06
2023-02-23T03:02:21.766Z,70.08
2023-02-23T03:05:06.262Z,70.07
2023-02-23T03:07:54.205Z,70.06
2023-02-23T03:10:43.841Z,69.97
2023-02-23T03:13:44.335Z,70.08
2023-02-23T03:16:41.309Z,70.05
2023-02-23T03:19:36.122Z,70.01
2023-02-23T03:22:29.535Z,70.00
2023-02-23T03:25:27.690Z,69.94
2023-02-23T03:28:23.299Z,69.96
2023-02-23T03:31:30.395Z,70.02
2023-02-23T03:34:31.323Z,69.99
2023-02-23T03:37:28.389Z,70.34
2023-02-23T03:40:26.791Z,70.63
2023-02-23T03:43:15.385Z,70.76
2023-02-23T03:46:04.338Z,70.90
2023-02-23T03:48:52.833Z,71.02
2023-02-23T03:51:40.785Z,71.22
2023-02-23T03:54:35.951Z,71.32
2023-02-23T03:57:26.176Z,71.43
2023-02-23T04:00:16.711Z,71.42
2023-02-23T04:03:04.987Z,71.47
2023-02-23T04:05:53.138Z,71.58
2023-02-23T04:08:42.150Z,71.75
2023-02-23T04:11:50.854Z,72.00
2023-02-23T04:14:24.551Z,72.12
2023-02-23T04:16:51.119Z,72.32
2023-02-23T04:19:17.055Z,72.34
2023-02-23T04:21:43.069Z,72.66
2023-02-23T04:32:33.311Z,72.48
2023-02-23T04:34:59.447Z,72.48
2023-02-23T04:37:25.853Z,72.27
2023-02-23T04:39:52.106Z,72.20
2023-02-23T04:42:19.059Z,72.28
2023-02-23T04:44:45.272Z,71.97
2023-02-23T04:47:13.770Z,71.91
2023-02-23T04:49:39.792Z,72.07
2023-02-23T04:52:06.092Z,72.23
2023-02-23T04:54:32.161Z,72.22
2023-02-23T04:56:58.210Z,72.13
2023-02-23T04:59:24.300Z,72.35
2023-02-23T05:01:50.376Z,72.07
2023-02-23T05:04:16.498Z,72.14
2023-02-23T05:06:42.564Z,71.97
2023-02-23T05:09:08.635Z,71.93
2023-02-23T05:11:34.773Z,72.01
2023-02-23T05:14:00.826Z,72.00
2023-02-23T05:16:27.382Z,71.88
2023-02-23T05:18:53.577Z,71.73
2023-02-23T05:21:19.813Z,71.64
2023-02-23T05:23:47.377Z,71.70
2023-02-23T05:26:14.020Z,71.71
2023-02-23T05:28:41.831Z,71.73
2023-02-23T05:31:08.300Z,71.66
2023-02-23T05:33:41.657Z,71.90
2023-02-23T05:36:18.885Z,72.15
2023-02-23T05:38:45.959Z,72.06
2023-02-23T05:41:14.787Z,72.54
2023-02-23T05:43:41.331Z,72.49
2023-02-23T05:46:21.143Z,72.75
2023-02-23T05:48:47.432Z,72.85
2023-02-23T05:51:15.184Z,72.82
2023-02-23T05:53:41.861Z,73.04
2023-02-23T05:56:12.823Z,73.05
2023-02-23T05:58:38.966Z,73.09
2023-02-23T06:01:05.025Z,72.93
2023-02-23T06:03:31.199Z,72.75
2023-02-23T06:05:58.263Z,72.80
2023-02-23T06:08:25.695Z,72.74
2023-02-23T06:10:52.416Z,72.87
2023-02-23T06:13:19.319Z,73.15
2023-02-23T06:15:45.395Z,73.24
2023-02-23T06:18:11.934Z,73.29
2023-02-23T06:20:40.279Z,73.09
2023-02-23T06:23:06.907Z,73.14
2023-02-23T06:25:33.128Z,72.82
2023-02-23T06:27:59.174Z,72.84
2023-02-23T06:30:25.361Z,72.78
2023-02-23T06:32:51.478Z,72.96
2023-02-23T06:35:19.554Z,72.90
2023-02-23T06:37:45.680Z,72.93
2023-02-23T06:40:12.175Z,73.07
2023-02-23T06:42:38.434Z,72.81
2023-02-23T06:45:05.290Z,72.92
2023-02-23T06:47:31.435Z,72.98
2023-02-23T06:49:59.282Z,73.34
2023-02-23T06:52:25.622Z,73.16
2023-02-23T06:54:51.665Z,72.93
2023-02-23T06:57:18.718Z,72.90
2023-02-23T06:59:44.866Z,72.88
2023-02-23T07:02:12.525Z,72.77
2023-02-23T07:04:38.784Z,72.82
2023-02-23T07:07:04.950Z,73.01
2023-02-23T07:09:31.260Z,72.86
2023-02-23T07:11:57.360Z,72.96
2023-02-23T07:14:27.369Z,72.84
2023-02-23T07:16:54.022Z,72.84
2023-02-23T07:19:21.148Z,72.88
2023-02-23T07:21:47.169Z,72.67
2023-02-23T07:24:13.202Z,72.79
2023-02-23T07:26:42.774Z,72.91
2023-02-23T07:29:11.585Z,73.24
2023-02-23T07:31:37.916Z,72.99
2023-02-23T07:34:06.911Z,72.97
2023-02-23T07:36:32.835Z,73.01
2023-02-23T07:38:58.960Z,73.12
2023-02-23T07:41:24.894Z,73.36
2023-02-23T07:43:50.785Z,73.21
2023-02-23T07:46:17.183Z,73.21
2023-02-23T07:48:47.355Z,73.47
2023-02-23T07:51:15.188Z,73.53
2023-02-23T07:53:41.663Z,73.51
2023-02-23T07:56:10.167Z,73.56
2023-02-23T07:58:40.745Z,73.53
2023-02-23T08:01:07.167Z,73.55
2023-02-23T08:03:33.071Z,73.48
2023-02-23T08:05:59.059Z,73.50
2023-02-23T08:08:25.095Z,73.45
2023-02-23T08:10:58.152Z,73.49
2023-02-23T08:13:24.050Z,73.44
2023-02-23T08:15:50.121Z,73.29
2023-02-23T08:18:17.153Z,73.12
2023-02-23T08:20:43.170Z,72.96
2023-02-23T08:23:09.485Z,72.53
2023-02-23T08:25:37.985Z,72.53
2023-02-23T08:28:06.183Z,72.28
2023-02-23T08:30:33.257Z,72.15
2023-02-23T08:33:00.783Z,72.35
2023-02-23T08:35:27.294Z,72.24
2023-02-23T08:37:54.034Z,71.99
2023-02-23T08:40:20.208Z,71.87
2023-02-23T08:42:48.528Z,71.74
2023-02-23T08:45:14.731Z,71.48
2023-02-23T08:47:40.977Z,71.53
2023-02-23T08:50:10.180Z,71.43
2023-02-23T08:52:37.306Z,71.35
2023-02-23T08:55:04.803Z,71.23
2023-02-23T08:57:34.980Z,71.25
2023-02-23T09:00:01.803Z,71.22
2023-02-23T09:02:28.307Z,71.16
2023-02-23T09:04:54.612Z,71.11
2023-02-23T09:07:22.690Z,71.09
2023-02-23T09:09:56.087Z,71.09
2023-02-23T09:12:22.398Z,71.06
2023-02-23T09:14:48.804Z,71.14
2023-02-23T09:17:16.556Z,70.90
2023-02-23T09:19:44.806Z,70.98
2023-02-23T09:22:11.558Z,70.83
2023-02-23T09:24:38.394Z,70.61
2023-02-23T09:27:06.712Z,70.80
2023-02-23T09:29:33.599Z,70.45
2023-02-23T09:31:59.600Z,70.32
2023-02-23T09:34:25.766Z,70.50
2023-02-23T09:36:55.134Z,70.59
2023-02-23T09:39:32.342Z,70.66
2023-02-23T09:42:12.252Z,70.54
2023-02-23T09:45:03.578Z,70.54
2023-02-23T09:47:39.683Z,70.33
2023-02-23T09:50:16.904Z,70.16
2023-02-23T09:52:46.758Z,70.03
2023-02-23T09:55:14.390Z,69.87
2023-02-23T09:57:45.735Z,69.37
2023-02-23T10:00:18.252Z,69.46
2023-02-23T10:03:23.224Z,69.33
2023-02-23T10:05:58.304Z,68.94
2023-02-23T10:08:50.502Z,69.00
2023-02-23T10:11:37.541Z,68.99
2023-02-23T10:14:21.343Z,68.72
2023-02-23T10:16:56.180Z,68.44
2023-02-23T10:20:03.691Z,68.71
2023-02-23T10:22:33.925Z,68.87
2023-02-23T10:25:04.108Z,68.76
2023-02-23T10:27:39.917Z,68.81
2023-02-23T10:30:17.110Z,68.77
2023-02-23T10:32:56.868Z,68.43
2023-02-23T10:35:23.004Z,68.39
2023-02-23T10:37:52.053Z,68.33
2023-02-23T10:40:27.778Z,68.53
2023-02-23T10:42:55.508Z,68.48
2023-02-23T10:45:24.560Z,68.60
2023-02-23T10:47:59.863Z,68.60
2023-02-23T10:50:27.678Z,68.81
2023-02-23T10:53:10.484Z,68.65
2023-02-23T10:55:48.596Z,68.70
2023-02-23T10:58:19.226Z,68.50
2023-02-23T11:00:55.841Z,68.57
2023-02-23T11:04:05.359Z,68.37
2023-02-23T11:06:59.176Z,68.36
2023-02-23T11:09:43.258Z,68.15
2023-02-23T11:12:24.318Z,68.09
2023-02-23T11:14:52.717Z,68.02
2023-02-23T11:17:24.298Z,67.68
2023-02-23T11:19:50.315Z,67.98
2023-02-23T11:22:36.931Z,67.65
2023-02-23T11:25:15.367Z,67.60
2023-02-23T11:27:46.385Z,67.39
2023-02-23T11:30:12.835Z,67.36
2023-02-23T11:32:41.789Z,67.53
2023-02-23T11:38:39.957Z,66.87
2023-02-23T11:38:41.288Z,67.38
2023-02-23T11:41:42.270Z,66.75
2023-02-23T11:44:19.516Z,66.69
2023-02-23T11:46:45.962Z,66.41
2023-02-23T11:49:21.773Z,66.06
2023-02-23T11:51:51.197Z,66.04
2023-02-23T11:54:28.016Z,65.92
2023-02-23T11:57:01.721Z,65.72
2023-02-23T11:59:35.222Z,65.71
2023-02-23T12:02:18.510Z,65.86
2023-02-23T12:04:48.285Z,65.40
2023-02-23T12:07:17.826Z,64.83
2023-02-23T12:09:46.722Z,65.02
2023-02-23T12:12:20.313Z,64.43
2023-02-23T12:14:51.361Z,64.48
2023-02-23T12:17:27.177Z,64.27
2023-02-23T12:20:16.479Z,64.07
2023-02-23T12:22:48.127Z,63.98
2023-02-23T12:25:16.785Z,63.89
2023-02-23T12:27:53.891Z,63.70
2023-02-23T12:30:42.914Z,63.64
2023-02-23T12:33:08.790Z,63.68
2023-02-23T12:35:58.627Z,63.49
2023-02-23T12:38:45.687Z,63.77
2023-02-23T12:41:16.655Z,63.32
2023-02-23T12:44:00.997Z,63.35
2023-02-23T12:46:33.467Z,63.78
2023-02-23T12:49:38.722Z,63.98
2023-02-23T12:52:14.140Z,63.82
2023-02-23T12:54:41.183Z,64.10
2023-02-23T12:57:28.932Z,63.94
2023-02-23T13:00:19.720Z,63.84
2023-02-23T13:03:14.934Z,64.19
2023-02-23T13:06:11.893Z,64.53
2023-02-23T13:09:02.210Z,64.37
2023-02-23T13:11:41.001Z,64.56
2023-02-23T13:14:25.564Z,64.70
2023-02-23T13:16:59.251Z,64.54
2023-02-23T13:19:33.950Z,64.71
2023-02-23T13:22:26.606Z,64.41
2023-02-23T13:24:54.800Z,64.46
2023-02-23T13:27:29.764Z,64.39
2023-02-23T13:29:58.445Z,64.74
2023-02-23T13:32:35.647Z,64.25
2023-02-23T13:35:06.103Z,64.43
2023-02-23T13:37:54.866Z,64.68
2023-02-23T13:40:29.807Z,64.59
2023-02-23T13:43:17.380Z,64.73
2023-02-23T13:46:02.058Z,64.91
2023-02-23T13:49:15.865Z,64.78
2023-02-23T13:51:52.752Z,64.80
2023-02-23T13:54:24.022Z,65.12
2023-02-23T13:57:00.590Z,64.98
2023-02-23T13:59:43.360Z,65.26
2023-02-23T14:02:27.949Z,65.45
2023-02-23T14:05:02.297Z,65.50
2023-02-23T14:07:31.764Z,65.17
2023-02-23T14:10:08.015Z,64.99
2023-02-23T14:12:39.977Z,64.72
2023-02-23T14:15:27.429Z,64.82
2023-02-23T14:18:04.402Z,65.09
2023-02-23T14:20:39.492Z,65.01
2023-02-23T14:23:16.518Z,64.99
2023-02-23T14:26:01.218Z,65.15
2023-02-23T14:28:33.727Z,64.87
2023-02-23T14:31:03.304Z,65.11
2023-02-23T14:33:41.392Z,65.21
2023-02-23T14:36:27.849Z,65.27
2023-02-23T14:38:56.519Z,65.22
2023-02-23T14:41:28.489Z,65.22
2023-02-23T14:44:28.316Z,65.32
2023-02-23T14:47:17.028Z,65.04
2023-02-23T14:49:46.901Z,65.03
2023-02-23T14:52:20.762Z,65.42
2023-02-23T14:54:47.340Z,65.01
2023-02-23T14:57:23.382Z,65.19
2023-02-23T15:00:00.989Z,65.26
2023-02-23T15:02:29.799Z,65.52
2023-02-23T15:04:56.040Z,65.42
2023-02-23T15:07:30.197Z,65.14
2023-02-23T15:09:59.255Z,65.46
2023-02-23T15:12:34.763Z,65.82
2023-02-23T15:15:05.366Z,65.61
2023-02-23T15:17:33.484Z,65.74
2023-02-23T15:20:16.697Z,65.77
2023-02-23T15:22:47.894Z,65.93
2023-02-23T15:25:17.512Z,65.79
2023-02-23T15:27:44.700Z,66.10
2023-02-23T15:30:21.406Z,66.27
2023-02-23T15:32:48.518Z,66.40
2023-02-23T15:35:14.864Z,66.37
2023-02-23T15:37:55.420Z,66.24
2023-02-23T15:40:31.853Z,66.28
2023-02-23T15:43:01.243Z,66.53
2023-02-23T15:45:37.223Z,66.56
2023-02-23T15:48:07.927Z,66.80
2023-02-23T15:50:39.757Z,66.96
2023-02-23T15:53:12.558Z,67.02
2023-02-23T15:55:41.090Z,67.16
2023-02-23T15:58:17.859Z,67.08
2023-02-23T16:00:50.611Z,67.29
2023-02-23T16:03:30.549Z,67.28
2023-02-23T16:05:59.572Z,67.45
2023-02-23T16:08:26.585Z,67.23
2023-02-23T16:11:15.368Z,67.79
2023-02-23T16:13:45.961Z,67.80
2023-02-23T16:16:19.869Z,67.83
2023-02-23T16:18:52.623Z,67.64
2023-02-23T16:21:23.235Z,67.82
2023-02-23T16:23:52.761Z,67.89
2023-02-23T16:26:33.917Z,67.93
2023-02-23T16:29:02.219Z,68.14
2023-02-23T16:31:45.294Z,68.29
2023-02-23T16:34:35.801Z,68.32
2023-02-23T16:37:16.988Z,68.39
2023-02-23T16:39:43.564Z,68.49
2023-02-23T16:42:35.712Z,68.60
2023-02-23T16:45:01.694Z,69.11
2023-02-23T16:47:39.847Z,69.37
2023-02-23T16:50:19.851Z,69.35
2023-02-23T16:52:52.336Z,69.60
2023-02-23T16:55:26.553Z,69.45
2023-02-23T16:57:56.123Z,69.52
2023-02-23T17:00:27.968Z,69.54
2023-02-23T17:02:55.266Z,69.28
2023-02-23T17:05:23.243Z,69.43
2023-02-23T17:07:50.729Z,69.40
2023-02-23T17:10:26.253Z,69.29
2023-02-23T17:13:05.267Z,69.42
2023-02-23T17:15:36.910Z,69.43
2023-02-23T17:18:04.460Z,69.69
2023-02-23T17:20:31.964Z,69.41
2023-02-23T17:23:01.657Z,69.50
2023-02-23T17:25:28.590Z,69.37
2023-02-23T17:27:56.838Z,69.62
2023-02-23T17:30:23.516Z,69.62
2023-02-23T17:32:51.750Z,69.61
2023-02-23T17:35:18.381Z,69.66
2023-02-23T17:37:44.454Z,69.93
2023-02-23T17:40:15.218Z,69.84
2023-02-23T17:42:41.532Z,69.99
2023-02-23T17:45:08.188Z,69.91
2023-02-23T17:47:35.668Z,69.88
2023-02-23T17:50:02.005Z,70.03
2023-02-23T17:52:28.131Z,69.96
2023-02-23T17:54:54.880Z,70.04
2023-02-23T17:57:24.470Z,70.07
2023-02-23T17:59:51.283Z,70.04
2023-02-23T18:02:19.993Z,70.21
2023-02-23T18:04:48.497Z,70.34
2023-02-23T18:07:15.268Z,70.37
2023-02-23T18:09:41.255Z,70.38
2023-02-23T18:12:07.937Z,70.25
2023-02-23T18:14:34.012Z,70.44
2023-02-23T18:17:00.256Z,70.52
2023-02-23T18:19:27.374Z,70.56
2023-02-23T18:21:55.404Z,70.57
2023-02-23T18:24:22.941Z,70.56
2023-02-23T18:26:49.387Z,70.58
2023-02-23T18:29:16.147Z,70.71
2023-02-23T18:31:42.230Z,70.83
2023-02-23T18:34:12.013Z,70.87
2023-02-23T18:36:38.359Z,70.90
2023-02-23T18:39:07.161Z,70.88
2023-02-23T18:41:33.261Z,70.94
2023-02-23T18:44:01.227Z,71.07
2023-02-23T18:46:27.574Z,71.19
2023-02-23T18:48:56.488Z,71.00
2023-02-23T18:51:23.264Z,71.06
2023-02-23T18:53:51.054Z,71.23
2023-02-23T18:56:22.194Z,71.27
2023-02-23T18:58:50.690Z,71.22
2023-02-23T19:01:20.700Z,71.43
2023-02-23T19:03:48.886Z,71.48
2023-02-23T19:06:15.578Z,71.33
2023-02-23T19:08:42.996Z,71.34
2023-02-23T19:11:10.209Z,71.38
2023-02-23T19:13:37.358Z,71.32
2023-02-23T19:16:07.281Z,71.48
2023-02-23T19:18:34.978Z,71.59
2023-02-23T19:21:02.232Z,71.70
2023-02-23T19:23:28.299Z,71.68
2023-02-23T19:25:54.241Z,71.59
2023-02-23T19:28:21.568Z,71.67
2023-02-23T19:30:48.418Z,71.64
2023-02-23T19:33:15.891Z,71.58
2023-02-23T19:35:42.385Z,71.64
2023-02-23T19:38:11.739Z,71.71
2023-02-23T19:40:41.781Z,71.39
2023-02-23T19:43:11.898Z,71.40
2023-02-23T19:45:40.266Z,71.30
2023-02-23T19:48:07.390Z,71.14
2023-02-23T19:50:35.118Z,71.18
2023-02-23T19:53:01.215Z,71.24
2023-02-23T19:55:27.188Z,70.79
2023-02-23T19:57:53.355Z,70.98
2023-02-23T20:00:20.169Z,71.08
2023-02-23T20:02:53.879Z,71.06
2023-02-23T20:05:20.858Z,70.97
2023-02-23T20:07:47.862Z,71.17
2023-02-23T20:10:15.463Z,71.13
2023-02-23T20:12:42.117Z,71.26
2023-02-23T20:15:09.166Z,71.33
2023-02-23T20:17:36.133Z,71.37
2023-02-23T20:20:05.516Z,71.38
2023-02-23T20:22:32.764Z,71.41
2023-02-23T20:25:00.003Z,71.42
2023-02-23T20:27:29.197Z,71.50
2023-02-23T20:29:57.608Z,71.55
2023-02-23T20:32:23.657Z,71.57
2023-02-23T20:34:50.689Z,71.73
2023-02-23T20:37:16.990Z,71.85
2023-02-23T20:39:43.199Z,72.09
2023-02-23T20:42:09.188Z,71.96
2023-02-23T20:44:35.289Z,71.97
2023-02-23T20:47:01.808Z,72.21
2023-02-23T20:49:28.910Z,72.34
2023-02-23T20:51:55.018Z,72.53
2023-02-23T20:54:21.007Z,72.56
2023-02-23T20:56:57.946Z,72.55
2023-02-23T20:59:29.325Z,72.53
2023-02-23T21:01:55.256Z,72.41
2023-02-23T21:04:21.897Z,72.43
2023-02-23T21:06:47.840Z,72.29
2023-02-23T21:09:16.949Z,72.23
2023-02-23T21:11:47.266Z,72.20
2023-02-23T21:14:13.981Z,72.23
2023-02-23T21:16:45.538Z,72.26
2023-02-23T21:19:14.432Z,72.19
2023-02-23T21:21:41.819Z,72.28
2023-02-23T21:24:08.330Z,72.25
2023-02-23T21:26:35.109Z,72.29
2023-02-23T21:29:01.659Z,72.25
2023-02-23T21:31:27.794Z,72.21
2023-02-23T21:33:53.831Z,72.09
2023-02-23T21:36:19.778Z,72.00
2023-02-23T21:38:45.671Z,72.05
2023-02-23T21:41:13.271Z,72.14
2023-02-23T21:43:41.983Z,72.15
2023-02-23T21:46:14.148Z,72.17
2023-02-23T21:48:41.128Z,72.25
2023-02-23T21:51:10.802Z,72.26
2023-02-23T21:53:37.500Z,72.34
2023-02-23T21:56:12.167Z,72.40
2023-02-23T21:58:42.561Z,72.39
2023-02-23T22:01:17.317Z,72.36
2023-02-23T22:03:46.422Z,72.50
2023-02-23T22:06:14.507Z,72.45
2023-02-23T22:08:42.517Z,72.39
2023-02-23T22:11:10.202Z,72.41
2023-02-23T22:13:36.424Z,72.50
2023-02-23T22:16:03.097Z,72.56
2023-02-23T22:18:29.037Z,72.56
2023-02-23T22:20:59.383Z,72.60
2023-02-23T22:23:27.040Z,72.39
2023-02-23T22:25:54.370Z,72.38
2023-02-23T22:28:21.454Z,72.20
2023-02-23T22:30:50.200Z,72.36
2023-02-23T22:33:20.621Z,72.26
2023-02-23T22:35:46.725Z,72.54
2023-02-23T22:38:13.205Z,72.26
2023-02-23T22:40:42.422Z,72.32
2023-02-23T22:43:10.206Z,72.61
2023-02-23T22:45:37.643Z,72.35
2023-02-23T22:48:05.556Z,72.35
2023-02-23T22:50:33.387Z,72.24
2023-02-23T22:53:00.708Z,72.04
2023-02-23T22:55:29.944Z,72.21
2023-02-23T22:57:56.597Z,72.08
2023-02-23T23:00:23.054Z,71.92
2023-02-23T23:02:49.274Z,72.02
2023-02-23T23:05:15.884Z,71.64
2023-02-23T23:07:42.238Z,71.50
2023-02-23T23:10:09.424Z,71.42
2023-02-23T23:12:36.069Z,71.36
2023-02-23T23:15:03.304Z,71.34
2023-02-23T23:17:30.761Z,71.26
2023-02-23T23:19:59.086Z,71.28
2023-02-23T23:22:26.632Z,71.14
2023-02-23T23:24:52.645Z,71.11
2023-02-23T23:27:19.856Z,71.28
2023-02-23T23:29:46.851Z,71.19
2023-02-23T23:32:17.656Z,71.45
2023-02-23T23:34:48.133Z,71.37
2023-02-23T23:37:18.764Z,71.57
2023-02-23T23:39:45.271Z,71.73
2023-02-23T23:42:12.204Z,71.57
2023-02-23T23:44:38.171Z,71.56
2023-02-23T23:47:04.681Z,71.82
2023-02-23T23:49:39.142Z,72.06
2023-02-23T23:52:05.440Z,72.61
2023-02-23T23:54:37.958Z,72.42
2023-02-23T23:57:05.104Z,72.49
2023-02-23T23:59:33.076Z,72.51
